createdAt,value
2023-05-03T00:02:02.627Z,4.80
2023-05-03T00:04:31.810Z,4.80
2023-05-03T00:07:00.055Z,4.70
2023-05-03T00:09:28.306Z,4.60
2023-05-03T00:11:56.734Z,4.50
2023-05-03T00:14:26.509Z,4.50
2023-05-03T00:16:55.083Z,4.40
2023-05-03T00:19:31.817Z,4.30
2023-05-03T00:22:00.489Z,4.30
2023-05-03T00:24:28.966Z,4.20
2023-05-03T00:26:57.376Z,4.10
2023-05-03T00:29:27.284Z,4.10
2023-05-03T00:31:55.774Z,4.10
2023-05-03T00:34:24.188Z,4.00
2023-05-03T00:36:52.392Z,3.90
2023-05-03T00:39:20.631Z,3.80
2023-05-03T00:41:49.127Z,3.80
2023-05-03T00:44:17.615Z,3.80
2023-05-03T00:46:47.429Z,3.70
2023-05-03T00:49:15.831Z,3.70
2023-05-03T00:51:44.536Z,3.60
2023-05-03T00:54:13.289Z,3.60
2023-05-03T00:56:51.016Z,3.50
2023-05-03T00:59:20.711Z,3.50
2023-05-03T01:01:54.921Z,3.40
2023-05-03T01:04:24.140Z,3.30
2023-05-03T01:07:04.820Z,3.30
2023-05-03T01:09:44.434Z,3.20
2023-05-03T01:12:35.914Z,3.20
2023-05-03T01:15:12.154Z,3.10
2023-05-03T01:17:49.455Z,3.10
2023-05-03T01:20:24.928Z,3.00
2023-05-03T01:23:03.001Z,3.00
2023-05-03T01:25:32.934Z,2.90
2023-05-03T01:28:01.593Z,2.90
2023-05-03T01:30:31.954Z,2.80
2023-05-03T01:33:06.629Z,2.80
2023-05-03T01:35:40.621Z,2.70
2023-05-03T01:38:10.429Z,2.70
2023-05-03T01:40:46.263Z,2.60
2023-05-03T01:43:17.086Z,2.60
2023-05-03T01:45:46.029Z,2.60
2023-05-03T01:48:17.635Z,2.50
2023-05-03T01:50:46.988Z,2.50
2023-05-03T01:53:15.627Z,2.40
2023-05-03T01:55:45.349Z,2.40
2023-05-03T01:58:13.755Z,2.40
2023-05-03T02:00:43.024Z,2.40
2023-05-03T02:03:11.457Z,2.40
2023-05-03T02:05:39.708Z,2.30
2023-05-03T02:08:08.131Z,2.30
2023-05-03T02:10:36.474Z,2.20
2023-05-03T02:13:06.240Z,2.20
2023-05-03T02:16:04.477Z,2.20
2023-05-03T02:18:36.911Z,2.10
2023-05-03T02:21:06.861Z,2.00
2023-05-03T02:23:35.126Z,2.00
2023-05-03T02:26:03.805Z,2.00
2023-05-03T02:28:34.125Z,2.00
2023-05-03T02:31:02.646Z,1.90
2023-05-03T02:33:31.001Z,1.90
2023-05-03T02:35:59.686Z,1.80
2023-05-03T02:38:27.990Z,1.80
2023-05-03T02:40:56.181Z,1.70
2023-05-03T02:43:24.700Z,1.70
2023-05-03T02:45:54.378Z,1.70
2023-05-03T02:48:22.954Z,1.60
2023-05-03T02:50:51.447Z,1.60
2023-05-03T02:53:19.820Z,1.60
2023-05-03T02:55:48.386Z,1.60
2023-05-03T02:58:16.736Z,1.60
2023-05-03T03:00:45.067Z,1.60
2023-05-03T03:03:14.734Z,1.50
2023-05-03T03:05:43.294Z,1.50
2023-05-03T03:08:11.714Z,1.40
2023-05-03T03:10:40.069Z,1.40
2023-05-03T03:13:08.485Z,1.40
2023-05-03T03:15:36.886Z,1.40
2023-05-03T03:18:05.954Z,1.30
2023-05-03T03:20:35.772Z,1.30
2023-05-03T03:23:04.014Z,1.30
2023-05-03T03:25:32.307Z,1.20
2023-05-03T03:28:00.831Z,1.20
2023-05-03T03:30:29.217Z,1.20
2023-05-03T03:32:57.483Z,1.10
2023-05-03T03:35:26.096Z,1.10
2023-05-03T03:37:55.902Z,1.10
2023-05-03T03:40:24.249Z,1.10
2023-05-03T03:42:52.703Z,1.00
2023-05-03T03:45:20.945Z,1.00
2023-05-03T03:47:50.318Z,1.00
2023-05-03T03:50:20.224Z,0.90
2023-05-03T03:52:48.564Z,0.90
2023-05-03T03:55:18.253Z,0.90
2023-05-03T03:57:46.588Z,0.90
2023-05-03T04:00:17.792Z,0.90
2023-05-03T04:02:47.315Z,0.90
2023-05-03T04:06:08.924Z,0.90
2023-05-03T04:08:37.840Z,0.90
2023-05-03T04:11:12.459Z,0.90
2023-05-03T04:13:40.770Z,0.90
2023-05-03T04:16:09.787Z,0.90
2023-05-03T04:18:38.124Z,0.90
2023-05-03T04:21:06.572Z,0.80
2023-05-03T04:23:34.897Z,0.80
2023-05-03T04:26:04.815Z,0.90
2023-05-03T04:28:35.005Z,0.90
2023-05-03T04:31:03.862Z,0.90
2023-05-03T04:33:32.340Z,1.00
2023-05-03T04:36:01.249Z,1.00
2023-05-03T04:38:29.384Z,1.10
2023-05-03T04:40:58.370Z,1.10
2023-05-03T04:43:26.800Z,1.20
2023-05-03T04:45:57.140Z,1.30
2023-05-03T04:48:25.441Z,1.30
2023-05-03T04:50:53.761Z,1.40
2023-05-03T04:53:22.131Z,1.50
2023-05-03T04:55:50.650Z,1.60
2023-05-03T04:58:18.888Z,1.70
2023-05-03T05:00:47.429Z,1.80
2023-05-03T05:03:17.466Z,1.90
2023-05-03T05:05:46.302Z,2.10
2023-05-03T05:08:14.801Z,2.30
2023-05-03T05:10:43.558Z,2.50
2023-05-03T05:13:11.907Z,2.80
2023-05-03T05:15:40.371Z,3.10
2023-05-03T05:18:09.323Z,3.40
2023-05-03T05:20:39.229Z,3.70
2023-05-03T05:23:07.686Z,4.00
2023-05-03T05:25:35.921Z,4.30
2023-05-03T05:28:04.206Z,4.60
2023-05-03T05:30:33.067Z,4.90
2023-05-03T05:33:01.544Z,5.20
2023-05-03T05:35:29.858Z,5.50
2023-05-03T05:37:59.717Z,5.80
2023-05-03T05:40:28.124Z,6.00
2023-05-03T05:42:56.423Z,6.30
2023-05-03T05:45:25.176Z,6.50
2023-05-03T05:47:53.512Z,6.80
2023-05-03T05:50:22.026Z,7.10
2023-05-03T05:52:52.992Z,7.30
2023-05-03T05:55:22.758Z,7.50
2023-05-03T05:57:51.014Z,7.70
2023-05-03T06:00:19.869Z,7.90
2023-05-03T06:02:49.269Z,8.10
2023-05-03T06:05:17.895Z,8.30
2023-05-03T06:07:46.702Z,8.50
2023-05-03T06:10:15.063Z,8.60
2023-05-03T06:12:44.852Z,8.80
2023-05-03T06:15:13.265Z,9.00
2023-05-03T06:17:41.649Z,9.20
2023-05-03T06:20:12.898Z,9.50
2023-05-03T06:22:41.562Z,9.80
2023-05-03T06:25:11.155Z,10.10
2023-05-03T06:27:39.543Z,10.30
2023-05-03T06:30:10.769Z,10.60
2023-05-03T06:32:40.709Z,10.90
2023-05-03T06:35:10.412Z,11.10
2023-05-03T06:37:38.817Z,11.70
2023-05-03T06:40:08.632Z,12.30
2023-05-03T06:42:37.418Z,12.80
2023-05-03T06:45:07.659Z,13.00
2023-05-03T06:47:37.689Z,13.10
2023-05-03T06:50:06.818Z,13.20
2023-05-03T06:52:35.120Z,13.20
2023-05-03T06:55:04.753Z,13.40
2023-05-03T06:57:33.294Z,13.30
2023-05-03T07:00:01.844Z,13.50
2023-05-03T07:02:30.659Z,13.80
2023-05-03T07:05:00.705Z,13.80
2023-05-03T07:07:29.047Z,13.90
2023-05-03T07:09:57.396Z,14.10
2023-05-03T07:12:27.793Z,14.10
2023-05-03T07:14:56.745Z,14.20
2023-05-03T07:17:25.645Z,14.10
2023-05-03T07:19:54.449Z,13.90
2023-05-03T07:22:25.382Z,13.70
2023-05-03T07:24:54.707Z,13.80
2023-05-03T07:27:23.115Z,13.70
2023-05-03T07:29:51.405Z,13.70
2023-05-03T07:32:19.741Z,13.80
2023-05-03T07:34:47.985Z,14.00
2023-05-03T07:37:16.408Z,13.90
2023-05-03T07:39:46.316Z,13.70
2023-05-03T07:42:14.699Z,13.70
2023-05-03T07:44:42.886Z,13.80
2023-05-03T07:47:11.453Z,14.10
2023-05-03T07:49:39.724Z,14.20
2023-05-03T07:52:07.994Z,14.10
2023-05-03T07:54:36.296Z,14.30
2023-05-03T07:57:06.354Z,14.40
2023-05-03T07:59:34.547Z,14.70
2023-05-03T08:02:03.236Z,14.40
2023-05-03T08:04:31.828Z,14.40
2023-05-03T08:07:02.281Z,14.10
2023-05-03T08:09:30.766Z,13.60
2023-05-03T08:11:59.013Z,13.90
2023-05-03T08:14:28.629Z,14.00
2023-05-03T08:16:56.889Z,14.10
2023-05-03T08:19:25.107Z,14.10
2023-05-03T08:21:54.561Z,14.20
2023-05-03T08:24:22.800Z,14.50
2023-05-03T08:26:51.805Z,14.50
2023-05-03T08:29:20.097Z,14.40
2023-05-03T08:31:50.016Z,14.30
2023-05-03T08:34:18.502Z,14.60
2023-05-03T08:36:46.802Z,14.60
2023-05-03T08:39:15.454Z,14.60
2023-05-03T08:41:43.826Z,14.70
2023-05-03T08:44:14.421Z,14.10
2023-05-03T08:46:44.981Z,14.40
2023-05-03T08:49:15.917Z,14.90
2023-05-03T08:51:47.236Z,15.30
2023-05-03T08:54:16.635Z,15.70
2023-05-03T08:56:47.336Z,15.90
2023-05-03T08:59:17.461Z,15.80
2023-05-03T09:01:45.905Z,16.00
2023-05-03T09:04:15.899Z,16.30
2023-05-03T09:06:44.278Z,16.40
2023-05-03T09:09:14.155Z,16.80
2023-05-03T09:11:42.620Z,17.10
2023-05-03T09:14:12.703Z,17.40
2023-05-03T09:16:42.668Z,17.40
2023-05-03T09:19:12.501Z,17.00
2023-05-03T09:21:43.262Z,16.80
2023-05-03T09:24:15.646Z,16.90
2023-05-03T09:26:45.553Z,17.10
2023-05-03T09:29:30.176Z,17.40
2023-05-03T09:32:02.812Z,17.80
2023-05-03T09:34:35.179Z,17.30
2023-05-03T09:37:04.895Z,17.40
2023-05-03T09:39:34.795Z,17.10
2023-05-03T09:42:12.528Z,17.60
2023-05-03T09:44:45.154Z,17.50
2023-05-03T09:47:13.850Z,17.80
2023-05-03T09:49:45.444Z,18.10
2023-05-03T09:52:15.243Z,17.70
2023-05-03T09:54:43.902Z,17.40
2023-05-03T09:57:12.074Z,17.70
2023-05-03T09:59:42.283Z,17.90
2023-05-03T10:02:10.710Z,18.20
2023-05-03T10:04:44.016Z,18.10
2023-05-03T10:07:18.963Z,18.30
2023-05-03T10:09:49.180Z,18.50
2023-05-03T10:12:17.953Z,18.30
2023-05-03T10:14:48.712Z,17.90
2023-05-03T10:17:31.872Z,17.10
2023-05-03T10:20:15.093Z,17.30
2023-05-03T10:23:12.754Z,17.80
2023-05-03T10:26:01.916Z,17.90
2023-05-03T10:28:30.381Z,17.70
2023-05-03T10:30:58.779Z,18.20
2023-05-03T10:33:31.845Z,18.30
2023-05-03T10:36:01.433Z,18.50
2023-05-03T10:38:32.743Z,18.80
2023-05-03T10:41:03.804Z,18.90
2023-05-03T10:43:46.952Z,19.00
2023-05-03T10:46:36.567Z,19.00
2023-05-03T10:49:21.364Z,19.20
2023-05-03T10:51:49.809Z,18.90
2023-05-03T10:54:19.796Z,19.00
2023-05-03T10:56:56.908Z,19.30
2023-05-03T10:59:26.109Z,19.50
2023-05-03T11:01:56.117Z,19.30
2023-05-03T11:04:43.258Z,19.20
2023-05-03T11:07:11.693Z,18.50
2023-05-03T11:09:41.927Z,18.80
2023-05-03T11:12:10.829Z,18.80
2023-05-03T11:14:40.194Z,18.50
2023-05-03T11:17:08.706Z,17.50
2023-05-03T11:19:37.930Z,17.30
2023-05-03T11:22:07.213Z,17.60
2023-05-03T11:24:35.543Z,17.90
2023-05-03T11:27:07.777Z,18.10
2023-05-03T11:29:37.705Z,17.80
2023-05-03T11:32:09.284Z,18.30
2023-05-03T11:34:38.347Z,18.40
2023-05-03T11:37:09.610Z,18.80
2023-05-03T11:39:38.267Z,18.70
2023-05-03T11:42:08.428Z,19.30
2023-05-03T11:44:37.771Z,19.20
2023-05-03T11:47:06.980Z,19.70
2023-05-03T11:49:35.772Z,19.90
2023-05-03T11:52:04.548Z,20.00
2023-05-03T11:54:32.979Z,19.60
2023-05-03T11:57:02.011Z,19.50
2023-05-03T11:59:40.361Z,19.80
2023-05-03T12:02:10.791Z,19.90
2023-05-03T12:04:43.193Z,19.90
2023-05-03T12:07:15.219Z,20.40
2023-05-03T12:09:52.875Z,20.30
2023-05-03T12:12:32.267Z,20.10
2023-05-03T12:15:08.004Z,19.70
2023-05-03T12:17:44.410Z,19.90
2023-05-03T12:22:51.658Z,19.40
2023-05-03T12:25:21.746Z,19.40
2023-05-03T12:28:12.778Z,19.90
2023-05-03T12:30:46.008Z,20.20
2023-05-03T12:33:16.977Z,20.30
2023-05-03T12:35:48.095Z,19.60
2023-05-03T12:38:18.005Z,20.10
2023-05-03T12:40:48.259Z,20.50
2023-05-03T12:43:16.838Z,20.70
2023-05-03T12:45:52.335Z,20.70
2023-05-03T12:48:27.394Z,20.80
2023-05-03T12:51:12.683Z,20.90
2023-05-03T12:53:47.191Z,21.20
2023-05-03T12:56:16.750Z,21.10
2023-05-03T13:02:19.419Z,20.30
2023-05-03T13:04:41.481Z,20.30
2023-05-03T13:07:01.278Z,20.50
2023-05-03T13:10:12.553Z,20.60
2023-05-03T13:12:20.765Z,21.00
2023-05-03T13:14:49.723Z,21.40
2023-05-03T13:17:20.689Z,21.70
2023-05-03T13:19:49.230Z,21.90
2023-05-03T13:22:18.527Z,22.20
2023-05-03T13:24:48.314Z,22.10
2023-05-03T13:27:18.060Z,22.20
2023-05-03T13:29:49.169Z,22.10
2023-05-03T13:32:19.692Z,21.90
2023-05-03T13:34:48.221Z,21.50
2023-05-03T13:37:18.684Z,21.50
2023-05-03T13:39:47.364Z,21.70
2023-05-03T13:42:15.952Z,21.70
2023-05-03T13:44:47.126Z,21.60
2023-05-03T13:47:15.729Z,21.60
2023-05-03T13:49:45.670Z,21.30
2023-05-03T13:52:14.832Z,21.20
2023-05-03T13:54:43.550Z,21.30
2023-05-03T13:57:11.882Z,21.50
2023-05-03T13:59:40.204Z,21.50
2023-05-03T14:02:08.934Z,21.60
2023-05-03T14:04:38.416Z,21.70
2023-05-03T14:07:08.588Z,21.60
2023-05-03T14:09:39.478Z,21.80
2023-05-03T14:12:09.314Z,21.70
2023-05-03T14:14:37.762Z,21.90
2023-05-03T14:17:06.710Z,22.10
2023-05-03T14:19:36.737Z,22.30
2023-05-03T14:22:05.227Z,22.40
2023-05-03T14:24:34.885Z,22.60
2023-05-03T14:27:03.749Z,22.70
2023-05-03T14:29:32.284Z,23.00
2023-05-03T14:32:01.211Z,23.40
2023-05-03T14:34:30.237Z,23.30
2023-05-03T14:36:58.786Z,23.20
2023-05-03T14:39:27.400Z,23.10
2023-05-03T14:41:57.342Z,22.30
2023-05-03T14:44:25.734Z,22.20
2023-05-03T14:46:54.231Z,22.30
2023-05-03T14:49:22.777Z,22.80
2023-05-03T14:51:51.166Z,22.90
2023-05-03T14:54:20.148Z,23.20
2023-05-03T14:56:48.529Z,23.00
2023-05-03T14:59:18.427Z,22.80
2023-05-03T15:01:46.939Z,22.90
2023-05-03T15:04:15.323Z,22.80
2023-05-03T15:06:43.910Z,22.90
2023-05-03T15:09:13.097Z,23.00
2023-05-03T15:11:41.494Z,22.80
2023-05-03T15:14:10.338Z,22.80
2023-05-03T15:16:40.559Z,22.60
2023-05-03T15:19:08.948Z,22.20
2023-05-03T15:21:47.096Z,22.30
2023-05-03T15:24:15.579Z,22.50
2023-05-03T15:26:43.998Z,22.70
2023-05-03T15:29:12.681Z,22.70
2023-05-03T15:31:42.909Z,22.40
2023-05-03T15:34:12.537Z,22.20
2023-05-03T15:36:41.017Z,22.20
2023-05-03T15:39:09.623Z,22.30
2023-05-03T15:41:37.913Z,22.20
2023-05-03T15:44:08.300Z,22.00
2023-05-03T15:46:36.821Z,22.00
2023-05-03T15:49:06.590Z,21.80
2023-05-03T15:51:35.045Z,21.80
2023-05-03T15:54:03.984Z,21.40
2023-05-03T15:56:32.355Z,21.20
2023-05-03T15:59:00.662Z,21.00
2023-05-03T16:01:29.072Z,20.60
2023-05-03T16:03:58.508Z,20.00
2023-05-03T16:06:28.517Z,19.40
2023-05-03T16:08:56.851Z,19.10
2023-05-03T16:11:25.539Z,18.90
2023-05-03T16:13:54.250Z,18.90
2023-05-03T16:16:22.656Z,18.90
2023-05-03T16:18:51.082Z,18.70
2023-05-03T16:21:19.502Z,18.70
2023-05-03T16:23:49.377Z,18.50
2023-05-03T16:26:19.393Z,18.30
2023-05-03T16:28:48.906Z,18.20
2023-05-03T16:31:18.488Z,17.90
2023-05-03T16:33:46.939Z,17.90
2023-05-03T16:36:15.432Z,17.80
2023-05-03T16:38:43.883Z,17.90
2023-05-03T16:41:13.643Z,17.80
2023-05-03T16:43:42.089Z,17.60
2023-05-03T16:46:10.457Z,17.50
2023-05-03T16:48:38.919Z,17.50
2023-05-03T16:51:07.460Z,17.40
2023-05-03T16:53:36.901Z,17.20
2023-05-03T16:56:05.500Z,17.20
2023-05-03T16:58:35.654Z,17.20
2023-05-03T17:01:04.332Z,17.10
2023-05-03T17:03:32.852Z,16.90
2023-05-03T17:06:03.600Z,16.80
2023-05-03T17:08:32.895Z,16.80
2023-05-03T17:11:07.099Z,16.70
2023-05-03T17:13:36.925Z,16.60
2023-05-03T17:16:10.114Z,16.60
2023-05-03T17:18:40.371Z,16.60
2023-05-03T17:21:09.691Z,16.60
2023-05-03T17:23:39.484Z,16.30
2023-05-03T17:26:09.759Z,16.30
2023-05-03T17:28:39.609Z,16.30
2023-05-03T17:31:08.377Z,16.20
2023-05-03T17:33:36.962Z,16.10
2023-05-03T17:36:05.765Z,16.20
2023-05-03T17:38:34.725Z,16.10
2023-05-03T17:41:07.488Z,16.00
2023-05-03T17:43:36.123Z,15.90
2023-05-03T17:46:11.288Z,15.90
2023-05-03T17:48:43.424Z,15.90
2023-05-03T17:51:13.536Z,15.80
2023-05-03T17:53:42.948Z,15.80
2023-05-03T17:56:15.295Z,15.60
2023-05-03T17:58:43.669Z,15.60
2023-05-03T18:01:13.757Z,15.40
2023-05-03T18:03:42.786Z,15.30
2023-05-03T18:06:13.281Z,15.30
2023-05-03T18:08:42.447Z,15.20
2023-05-03T18:11:10.874Z,15.00
2023-05-03T18:13:41.286Z,15.00
2023-05-03T18:16:10.237Z,14.90
2023-05-03T18:18:40.051Z,14.80
2023-05-03T18:21:10.518Z,14.70
2023-05-03T18:23:38.988Z,14.60
2023-05-03T18:26:07.987Z,14.50
2023-05-03T18:28:37.695Z,14.40
2023-05-03T18:31:06.859Z,14.30
2023-05-03T18:33:35.250Z,14.20
2023-05-03T18:36:08.934Z,14.00
2023-05-03T18:38:37.999Z,13.90
2023-05-03T18:41:14.000Z,13.80
2023-05-03T18:43:42.857Z,13.70
2023-05-03T18:46:11.872Z,13.60
2023-05-03T18:48:40.673Z,13.40
2023-05-03T18:51:10.624Z,13.30
2023-05-03T18:53:39.418Z,13.20
2023-05-03T18:56:07.817Z,13.10
2023-05-03T18:58:36.162Z,13.00
2023-05-03T19:01:06.062Z,12.90
2023-05-03T19:03:34.749Z,12.80
2023-05-03T19:06:04.385Z,12.70
2023-05-03T19:08:34.808Z,12.60
2023-05-03T19:11:09.313Z,12.50
2023-05-03T19:13:38.360Z,12.40
2023-05-03T19:16:07.785Z,12.30
2023-05-03T19:18:37.700Z,12.20
2023-05-03T19:21:06.770Z,12.10
2023-05-03T19:23:36.486Z,12.00
2023-05-03T19:26:06.484Z,11.90
2023-05-03T19:28:34.802Z,11.80
2023-05-03T19:31:04.777Z,11.80
2023-05-03T19:33:34.175Z,11.70
2023-05-03T19:36:06.903Z,11.60
2023-05-03T19:38:37.889Z,11.50
2023-05-03T19:41:08.370Z,11.40
2023-05-03T19:43:36.905Z,11.30
2023-05-03T19:46:05.404Z,11.30
2023-05-03T19:48:34.344Z,11.20
2023-05-03T19:51:05.136Z,11.10
2023-05-03T19:53:34.379Z,11.00
2023-05-03T19:56:04.540Z,11.00
2023-05-03T19:58:33.134Z,10.90
2023-05-03T20:01:01.767Z,10.90
2023-05-03T20:03:30.185Z,10.90
2023-05-03T20:05:58.888Z,10.80
2023-05-03T20:08:27.776Z,10.70
2023-05-03T20:10:57.013Z,10.70
2023-05-03T20:13:27.775Z,10.60
2023-05-03T20:15:56.374Z,10.50
2023-05-03T20:18:24.790Z,10.50
2023-05-03T20:20:53.782Z,10.30
2023-05-03T20:23:22.257Z,10.30
2023-05-03T20:25:51.194Z,10.20
2023-05-03T20:28:19.884Z,10.10
2023-05-03T20:30:49.948Z,10.00
2023-05-03T20:33:18.324Z,9.90
2023-05-03T20:35:46.836Z,9.80
2023-05-03T20:38:15.183Z,9.80
2023-05-03T20:40:43.650Z,9.70
2023-05-03T20:43:12.121Z,9.60
2023-05-03T20:45:40.614Z,9.50
2023-05-03T20:48:10.473Z,9.40
2023-05-03T20:50:38.845Z,9.30
2023-05-03T20:53:07.372Z,9.20
2023-05-03T20:55:35.841Z,9.10
2023-05-03T20:58:05.230Z,9.10
2023-05-03T21:00:33.735Z,9.00
2023-05-03T21:03:02.345Z,8.90
2023-05-03T21:05:32.317Z,8.80
2023-05-03T21:08:00.745Z,8.70
2023-05-03T21:10:29.120Z,8.70
2023-05-03T21:12:57.545Z,8.60
2023-05-03T21:15:26.046Z,8.50
2023-05-03T21:17:54.614Z,8.50
2023-05-03T21:20:23.508Z,8.40
2023-05-03T21:22:53.889Z,8.30
2023-05-03T21:25:22.441Z,8.30
2023-05-03T21:27:50.758Z,8.20
2023-05-03T21:30:20.527Z,8.20
2023-05-03T21:32:49.944Z,8.10
2023-05-03T21:35:18.682Z,7.90
2023-05-03T21:37:48.264Z,7.80
2023-05-03T21:40:18.325Z,7.70
2023-05-03T21:42:47.251Z,7.60
2023-05-03T21:45:16.630Z,7.50
2023-05-03T21:47:45.131Z,7.40
2023-05-03T21:50:14.169Z,7.30
2023-05-03T21:52:42.997Z,7.30
2023-05-03T21:55:12.236Z,7.20
2023-05-03T21:57:41.970Z,7.20
2023-05-03T22:00:16.797Z,7.10
2023-05-03T22:02:45.258Z,7.10
2023-05-03T22:05:14.278Z,7.10
2023-05-03T22:07:42.637Z,7.00
2023-05-03T22:10:11.357Z,7.00
2023-05-03T22:12:41.177Z,6.90
2023-05-03T22:15:10.440Z,6.80
2023-05-03T22:17:38.997Z,6.80
2023-05-03T22:20:10.376Z,6.70
2023-05-03T22:22:39.268Z,6.70
2023-05-03T22:25:08.045Z,6.60
2023-05-03T22:27:37.353Z,6.50
2023-05-03T22:30:09.085Z,6.50
2023-05-03T22:32:37.527Z,6.50
2023-05-03T22:35:06.340Z,6.40
2023-05-03T22:37:34.901Z,6.40
2023-05-03T22:40:04.811Z,6.30
2023-05-03T22:42:33.383Z,6.30
2023-05-03T22:45:01.876Z,6.30
2023-05-03T22:47:31.720Z,6.20
2023-05-03T22:50:00.086Z,6.20
2023-05-03T22:52:28.577Z,6.20
2023-05-03T22:54:57.577Z,6.10
2023-05-03T22:57:26.228Z,6.10
2023-05-03T22:59:54.637Z,6.10
2023-05-03T23:02:23.210Z,6.00
2023-05-03T23:04:53.393Z,6.00
2023-05-03T23:07:22.294Z,6.00
2023-05-03T23:09:50.707Z,5.90
2023-05-03T23:12:19.220Z,5.90
2023-05-03T23:14:47.662Z,5.80
2023-05-03T23:17:16.221Z,5.80
2023-05-03T23:19:44.634Z,5.80
2023-05-03T23:22:14.351Z,5.70
2023-05-03T23:24:42.951Z,5.60
2023-05-03T23:27:13.321Z,5.50
2023-05-03T23:29:42.323Z,5.50
2023-05-03T23:32:11.705Z,5.50
2023-05-03T23:34:41.300Z,5.40
2023-05-03T23:37:17.555Z,5.40
2023-05-03T23:39:46.859Z,5.40
2023-05-03T23:42:15.473Z,5.30
2023-05-03T23:44:54.451Z,5.30
2023-05-03T23:47:24.281Z,5.30
2023-05-03T23:49:52.980Z,5.30
2023-05-03T23:52:23.065Z,5.30
2023-05-03T23:54:51.749Z,5.20
2023-05-03T23:57:20.102Z,5.20
2023-05-03T23:59:48.428Z,5.20
